• Join FlightAware (Why Join?)
  • Login
  • US Flag 
07:43AM EDT


 

Airport Tracker/Info


-or-


 

Live Flight TrackerFlight Track Log ✈ ASH3770 ✈ 16-Apr-2013 ✈ KIAD - KAUS

Flight Track Log - Related Links

Times and Time Zones

All times are in EDT time to prevent confusion due to time zone crossing. See the ASH3770 flight status page for this flight to view local times or setup timezone preferences in your user account.

Time Position Orientation Groundspeed Altitude Reporting Facility
EDT Latitude Longitude Course Direction KTS MPH feet Rate Location/Type
01:05PM 38.9000 -77.4667 288° West 197 227 2,200  Level Potomac TRACON
01:06PM 38.8833 -77.5500 256° West 247 284 4,000 1,920 Climbing Potomac TRACON
01:08PM 38.8411 -77.6706 246° West 280 322 7,000 1,740 Climbing Washington Center
01:09PM 38.8167 -77.7631 251° West 280 322 8,300 1,800 Climbing Washington Center
01:10PM 38.7942 -77.8556 253° West 275 316 10,600 1,920 Climbing Washington Center
01:11PM 38.8444 -78.1774 288° West  Level FlightAware Approximate
01:11PM 38.7961 -77.9622 271° West 298 343 12,200  Level Washington Center
01:12PM 38.8231 -78.0778 287° West 315 362 14,300 1,860 Climbing Washington Center
01:13PM 38.8481 -78.1772 288° West 325 374 16,000 1,740 Climbing Washington Center
01:14PM 38.8514 -78.3133 272° West 340 391 17,800 1,740 Climbing Washington Center
01:15PM 38.8531 -78.4253 271° West 350 403 19,500 1,500 Climbing Washington Center
01:16PM 38.8519 -78.5506 269° West 350 403 20,800 1,380 Climbing Washington Center
01:17PM 38.8528 -78.6864 270° West 364 419 22,300 1,500 Climbing Washington Center
01:18PM 38.8508 -78.8383 269° West 375 432 23,900 1,260 Climbing Washington Center
01:19PM 38.8456 -78.9553 267° West 380 437 24,900 1,020 Climbing Washington Center
01:20PM 38.8472 -79.1128 271° West 385 443 26,000 1,020 Climbing Washington Center
01:21PM 38.8367 -79.2561 265° West 403 464 27,000 1,020 Climbing Washington Center
01:22PM 38.8119 -79.3856 256° West 409 471 28,100 900 Climbing Washington Center
01:23PM 38.7844 -79.5278 256° West 409 471 28,800 840 Climbing Washington Center
01:24PM 38.7589 -79.6678 257° West 409 471 29,800 900 Climbing Washington Center
01:25PM 38.7283 -79.8283 256° West 416 479 30,700 900 Climbing Washington Center
01:26PM 38.7042 -79.9733 258° West 416 479 31,600 960 Climbing Washington Center
01:27PM 38.6761 -80.1153 256° West 416 479 32,700 780 Climbing Washington Center
01:28PM 38.6539 -80.2144 254° West 412 474 33,000 360 Climbing Indianapolis Center
01:29PM 38.6267 -80.3594 257° West 417 480 33,400 480 Climbing Indianapolis Center
01:30PM 38.5989 -80.5042 256° West 419 482 34,000 240 Climbing Indianapolis Center
01:31PM 38.5708 -80.6531 256° West 428 493 34,000  Level Indianapolis Center
01:32PM 38.5419 -80.8047 256° West 437 503 34,000  Level Indianapolis Center
01:33PM 38.5122 -80.9569 256° West 439 505 34,000  Level Indianapolis Center
01:34PM 38.4836 -81.1022 256° West 425 489 34,000  Level Indianapolis Center
01:35PM 38.4564 -81.2406 256° West 403 464 34,000  Level Indianapolis Center
01:36PM 38.4292 -81.3750 256° West 391 450 34,000  Level Indianapolis Center
01:37PM 38.4014 -81.5111 255° West 392 451 34,000  Level Indianapolis Center
01:38PM 38.3742 -81.6478 256° West 393 452 34,000  Level Indianapolis Center
01:39PM 38.3386 -81.8117 255° West 399 459 34,000  Level Indianapolis Center
01:40PM 38.3006 -81.9461 250° West 401 461 34,000  Level Indianapolis Center
01:41PM 38.2622 -82.0794 250° West 401 461 34,000  Level Indianapolis Center
01:42PM 38.2244 -82.2158 251° West 407 468 34,000  Level Indianapolis Center
01:43PM 38.1864 -82.3497 250° West 404 465 34,000  Level Indianapolis Center
01:44PM 38.1439 -82.4981 250° West 407 468 34,000  Level Indianapolis Center
01:45PM 38.1056 -82.6317 250° West 406 467 34,000  Level Indianapolis Center
01:46PM 38.0667 -82.7689 250° West 412 474 34,000  Level Indianapolis Center
01:47PM 38.0272 -82.9036 250° West 411 473 34,000  Level Indianapolis Center
01:48PM 37.9886 -83.0378 250° West 409 471 34,000  Level Indianapolis Center
01:49PM 37.9422 -83.1975 250° West 410 472 34,000  Level Indianapolis Center
01:50PM 37.9017 -83.3325 249° West 416 479 34,000 180 Level Indianapolis Center
01:51PM 37.8611 -83.4686 249° West 416 479 34,400 540 Climbing Indianapolis Center
01:52PM 37.8214 -83.6033 250° West 413 475 35,200 780 Climbing Indianapolis Center
01:53PM 37.7814 -83.7353 249° West 405 466 36,000 360 Climbing Indianapolis Center
01:54PM 37.7411 -83.8692 249° West 410 472 36,000  Level Indianapolis Center
01:55PM 37.6931 -84.0294 249° West 417 480 36,000  Level Indianapolis Center
01:56PM 37.6514 -84.1678 249° West 422 486 36,000  Level Indianapolis Center
01:57PM 37.6089 -84.3050 249° West 421 484 36,000  Level Indianapolis Center
01:58PM 37.5675 -84.4411 249° West 418 481 36,000  Level Indianapolis Center
01:59PM 37.5242 -84.5778 248° West 421 484 36,000  Level Indianapolis Center
02:00PM 37.4825 -84.7142 249° West 419 482 36,000  Level Indianapolis Center
02:01PM 37.4331 -84.8717 248° West 416 479 36,000  Level Indianapolis Center
02:03PM 37.3911 -85.0075 249° West 418 481 36,000  Level Indianapolis Center
02:04PM 37.3492 -85.1428 249° West 416 479 36,000  Level Indianapolis Center
02:05PM 37.3050 -85.2797 248° West 420 483 36,000  Level Indianapolis Center
02:06PM 37.2622 -85.4144 248° West 419 482 36,000  Level Indianapolis Center
02:07PM 37.2181 -85.5533 248° West 419 482 36,000  Level Indianapolis Center
02:08PM 37.1742 -85.6892 248° West 418 481 36,000  Level Indianapolis Center
02:08PM 37.1583 -85.7372 248° West 421 484 36,000  Level Memphis Center
02:09PM 37.1153 -85.8722 248° West 421 484 36,000  Level Memphis Center
02:10PM 37.0722 -86.0072 248° West 415 478 36,000  Level Memphis Center
02:11PM 37.0289 -86.1394 248° West 420 483 36,000  Level Memphis Center
02:12PM 36.9833 -86.2719 247° West 420 483 36,000  Level Memphis Center
02:13PM 36.9381 -86.4194 249° West 420 483 36,000  Level Memphis Center
02:14PM 36.8772 -86.5417 238° Southwest 415 478 36,000  Level Memphis Center
02:15PM 36.8142 -86.6614 237° Southwest 421 484 36,000  Level Memphis Center
02:16PM 36.7489 -86.7808 236° Southwest 421 484 36,000  Level Memphis Center
02:17PM 36.6858 -86.9028 237° Southwest 427 491 36,000  Level Memphis Center
02:18PM 36.6203 -87.0244 236° Southwest 427 491 36,000  Level Memphis Center
02:19PM 36.5569 -87.1458 237° Southwest 433 498 36,000  Level Memphis Center
02:20PM 36.4889 -87.2647 235° Southwest 428 493 36,000  Level Memphis Center
02:21PM 36.4231 -87.3833 235° Southwest 428 493 36,000  Level Memphis Center
02:22PM 36.3572 -87.5069 237° Southwest 433 498 36,000  Level Memphis Center
02:23PM 36.2911 -87.6303 236° Southwest 433 498 36,000  Level Memphis Center
02:24PM 36.2228 -87.7483 234° Southwest 432 497 36,000  Level Memphis Center
02:25PM 36.1586 -87.8686 237° Southwest 432 497 36,000  Level Memphis Center
02:26PM 36.0900 -87.9889 235° Southwest 432 497 36,000  Level Memphis Center
02:27PM 36.0236 -88.1089 236° Southwest 432 497 36,000  Level Memphis Center
02:28PM 35.9567 -88.2236 234° Southwest 426 490 36,000  Level Memphis Center
02:29PM 35.8900 -88.3431 235° Southwest 426 490 36,000  Level Memphis Center
02:30PM 35.8208 -88.4625 234° Southwest 432 497 36,000  Level Memphis Center
02:31PM 35.7517 -88.5844 235° Southwest 432 497 36,000  Level Memphis Center
02:32PM 35.6847 -88.7033 235° Southwest 432 497 36,000  Level Memphis Center
02:33PM 35.6256 -88.8117 236° Southwest 432 497 36,000  Level Memphis Center
02:34PM 35.5561 -88.9306 234° Southwest 432 497 36,000  Level Memphis Center
02:35PM 35.4844 -89.0617 236° Southwest 432 497 36,000  Level Memphis Center
02:36PM 35.4167 -89.1750 234° Southwest 432 497 36,000  Level Memphis Center
02:37PM 35.3469 -89.2956 235° Southwest 433 498 36,000  Level Memphis Center
02:38PM 35.2811 -89.4133 236° Southwest 426 490 36,000  Level Memphis Center
02:39PM 35.2131 -89.5311 235° Southwest 432 497 36,000  Level Memphis Center
02:40PM 35.1472 -89.6461 235° Southwest 432 497 36,000  Level Memphis Center
02:41PM 35.0811 -89.7658 236° Southwest 432 497 36,000  Level Memphis Center
02:42PM 35.0147 -89.8856 236° Southwest 432 497 36,000  Level Memphis Center
02:43PM 34.9422 -90.0050 234° Southwest 437 503 36,000  Level Memphis Center
02:44PM 34.8714 -90.1192 233° Southwest 431 496 36,000  Level Memphis Center
02:45PM 34.8050 -90.2281 233° Southwest 424 488 36,000  Level Memphis Center
02:46PM 34.7361 -90.3444 234° Southwest 424 488 36,000  Level Memphis Center
02:47PM 34.6694 -90.4531 233° Southwest 430 495 36,000  Level Memphis Center
02:48PM 34.6003 -90.5692 234° Southwest 430 495 36,000  Level Memphis Center
02:49PM 34.5311 -90.6797 233° Southwest 430 495 36,000  Level Memphis Center
02:50PM 34.4642 -90.7931 234° Southwest 425 489 36,000  Level Memphis Center
02:51PM 34.4053 -90.8933 235° Southwest 425 489 36,000  Level Memphis Center
02:52PM 34.3358 -91.0061 233° Southwest 425 489 36,000  Level Memphis Center
02:53PM 34.2686 -91.1186 234° Southwest 425 489 36,000  Level Memphis Center
02:54PM 34.2011 -91.2286 233° Southwest 424 488 36,000  Level Memphis Center
02:55PM 34.1314 -91.3433 234° Southwest 424 488 36,000  Level Memphis Center
02:56PM 34.0575 -91.4503 230° Southwest 430 495 36,000  Level Memphis Center
02:57PM 33.9872 -91.5747 236° Southwest 425 489 36,000  Level Memphis Center
02:58PM 33.9175 -91.6839 232° Southwest 420 483 36,000  Level Memphis Center
03:00PM 33.7797 -91.9161 235° Southwest 416 479 36,000  Level Fort Worth Center
03:01PM 33.7114 -92.0253 233° Southwest 416 479 36,000  Level Fort Worth Center
03:02PM 33.6472 -92.1389 236° Southwest 416 479 36,000  Level Fort Worth Center
03:03PM 33.5981 -92.2617 244° Southwest 416 479 36,000  Level Fort Worth Center
03:04PM 33.5553 -92.3886 248° West 410 472 36,000  Level Fort Worth Center
03:05PM 33.5081 -92.5133 246° West 410 472 36,000  Level Fort Worth Center
03:06PM 33.4647 -92.6378 247° West 410 472 36,000  Level Fort Worth Center
03:07PM 33.4194 -92.7622 246° West 405 466 36,000  Level Fort Worth Center
03:08PM 33.3739 -92.8864 246° West 405 466 36,000  Level Fort Worth Center
03:09PM 33.3283 -93.0106 246° West 405 466 36,000  Level Fort Worth Center
03:10PM 33.2822 -93.1322 246° West 405 466 36,000  Level Fort Worth Center
03:11PM 33.2364 -93.2561 246° West 405 466 36,000  Level Fort Worth Center
03:12PM 33.1883 -93.3825 246° West 405 466 36,000  Level Fort Worth Center
03:13PM 33.1400 -93.5061 245° Southwest 405 466 36,000  Level Fort Worth Center
03:14PM 33.0939 -93.6297 246° West 405 466 36,000  Level Fort Worth Center
03:15PM 33.0511 -93.7406 245° Southwest 405 466 36,000  Level Fort Worth Center
03:16PM 33.0047 -93.8639 246° West 405 466 36,000  Level Fort Worth Center
03:17PM 32.9581 -93.9894 246° West 405 466 36,000  Level Fort Worth Center
03:18PM 32.9111 -94.1125 246° West 405 466 36,000  Level Fort Worth Center
03:19PM 32.8664 -94.2378 247° West 405 466 36,000  Level Fort Worth Center
03:20PM 32.8172 -94.3606 245° Southwest 405 466 36,000  Level Fort Worth Center
03:21PM 32.7722 -94.4808 246° West 405 466 36,000  Level Fort Worth Center
03:22PM 32.7250 -94.6083 246° West 405 466 36,000  Level Fort Worth Center
03:23PM 32.6753 -94.7283 244° Southwest 405 466 36,000  Level Fort Worth Center
03:24PM 32.6278 -94.8531 246° West 405 466 36,000  Level Fort Worth Center
03:25PM 32.5803 -94.9750 245° Southwest 405 466 36,000  Level Fort Worth Center
03:26PM 32.5325 -95.0972 245° Southwest 405 466 36,000  Level Fort Worth Center
03:27PM 32.4825 -95.2192 244° Southwest 405 466 36,000  Level Fort Worth Center
03:28PM 32.4347 -95.3581 248° West 400 460 36,000  Level Fort Worth Center
03:29PM 32.3886 -95.4772 245° Southwest 405 466 36,000  Level Fort Worth Center
03:30PM 32.3381 -95.5989 244° Southwest 405 466 36,000  Level Fort Worth Center
03:31PM 32.2917 -95.7178 245° Southwest 405 466 36,000  Level Fort Worth Center
03:32PM 32.2433 -95.8414 245° Southwest 405 466 36,000  Level Fort Worth Center
03:33PM 32.1964 -95.9503 243° Southwest 405 466 36,000  Level Fort Worth Center
03:34PM 32.1436 -96.0714 243° Southwest 405 466 36,000  Level Fort Worth Center
03:35PM 32.0694 -96.1706 229° Southwest 405 466 36,000  Level Fort Worth Center
03:36PM 31.9911 -96.2669 226° Southwest 410 472 36,000 -780 Level Fort Worth Center
03:37PM 31.9144 -96.3586 225° Southwest 410 472 34,500 -1,500 Descending Fort Worth Center
03:38PM 31.8278 -96.4647 226° Southwest 403 464 33,000 -1,620 Descending Fort Worth Center
03:39PM 31.7533 -96.5583 227° Southwest 398 458 31,300 -1,680 Descending Fort Worth Center
03:40PM 31.6786 -96.6492 226° Southwest 393 452 29,700 -1,740 Descending Fort Worth Center
03:41PM 31.6003 -96.7414 225° Southwest 421 484 27,900 -1,800 Descending Houston Center
03:42PM 31.5161 -96.8411 225° Southwest 427 491 26,100 -1,800 Descending Houston Center
03:43PM 31.4378 -96.9369 226° Southwest 407 468 24,200 -1,800 Descending Houston Center
03:44PM 31.3603 -97.0281 225° Southwest 395 455 22,400 -1,920 Descending Houston Center
03:45PM 31.2722 -97.1325 225° Southwest 385 443 20,300 -1,200 Descending Houston Center
03:46PM 31.1947 -97.2125 221° Southwest 373 429 20,000 -180 Descending Houston Center
03:47PM 31.0925 -97.2550 200° South 388 447 20,000 -1,020 Level Houston Center
03:48PM 30.9833 -97.2969 198° South 395 455 17,900 -2,700 Descending Houston Center
03:49PM 30.8733 -97.3400 199° South 385 443 14,500 -2,700 Descending Houston Center
03:50PM 30.7806 -97.3808 201° Southwest 357 411 12,400 -2,040 Descending Houston Center
03:52PM 30.7025 -97.4397 213° Southwest 334 384 10,300 -1,560 Descending Houston Center
03:53PM 30.6372 -97.4933 215° Southwest 284 327 9,200 -1,500 Descending Houston Center
03:54PM 30.5719 -97.5422 213° Southwest 275 316 7,200 -1,740 Descending Houston Center
03:55PM 30.5117 -97.5869 213° Southwest 262 302 5,700 -1,560 Descending Houston Center
03:56PM 30.4456 -97.6356 212° Southwest 243 280 4,000 -1,320 Descending Houston Center
03:57PM 30.3853 -97.6672 204° Southwest 238 274 3,000 -600 Descending Houston Center
03:58PM 30.3286 -97.6833 194° South 218 251 2,800 -540 Descending Houston Center
03:59PM 30.2817 -97.6811 178° South 184 212 1,900 -900 Descending Houston Center